createdAt,value
2022-12-13T00:01:50.184Z,4.20
2022-12-13T00:06:54.411Z,3.00
2022-12-13T00:11:58.607Z,3.40
2022-12-13T00:17:01.491Z,5.00
2022-12-13T00:22:04.245Z,4.20
2022-12-13T00:27:08.375Z,2.40
2022-12-13T00:32:11.248Z,4.20
2022-12-13T00:37:14.044Z,3.00
2022-12-13T00:42:18.147Z,4.60
2022-12-13T00:47:22.267Z,4.60
2022-12-13T00:52:25.097Z,3.00
2022-12-13T00:57:29.402Z,3.40
2022-12-13T01:02:32.211Z,3.00
2022-12-13T01:07:35.015Z,2.80
2022-12-13T01:12:39.249Z,2.60
2022-12-13T01:17:42.028Z,5.00
2022-12-13T01:22:44.909Z,3.40
2022-12-13T01:27:48.989Z,3.00
2022-12-13T01:32:51.774Z,3.00
2022-12-13T01:37:55.653Z,3.00
2022-12-13T01:43:03.224Z,2.00
2022-12-13T01:48:18.668Z,3.40
2022-12-13T01:53:22.792Z,3.00
2022-12-13T01:58:26.944Z,3.00
2022-12-13T02:03:29.756Z,3.00
2022-12-13T02:08:36.067Z,2.00
2022-12-13T02:13:40.851Z,3.00
2022-12-13T02:18:55.418Z,2.40
2022-12-13T02:24:20.744Z,2.20
2022-12-13T02:29:52.400Z,2.00
2022-12-13T02:34:58.897Z,2.40
2022-12-13T02:40:04.346Z,2.00
2022-12-13T02:45:08.862Z,2.00
2022-12-13T02:50:13.728Z,2.60
2022-12-13T02:55:17.134Z,2.60
2022-12-13T03:00:22.024Z,2.00
2022-12-13T03:05:46.266Z,2.00
2022-12-13T03:10:53.297Z,2.00
2022-12-13T03:15:57.684Z,2.00
2022-12-13T03:21:03.323Z,2.00
2022-12-13T03:26:08.188Z,2.00
2022-12-13T03:31:11.325Z,2.00
2022-12-13T03:36:15.601Z,3.20
2022-12-13T03:41:19.469Z,1.20
2022-12-13T03:46:22.271Z,2.00
2022-12-13T03:51:26.478Z,2.00
2022-12-13T03:56:29.346Z,2.00
2022-12-13T04:01:32.273Z,2.00
2022-12-13T04:06:36.453Z,2.00
2022-12-13T04:11:56.870Z,2.00
2022-12-13T04:16:59.635Z,2.00
2022-12-13T04:22:03.834Z,3.60
2022-12-13T04:27:06.661Z,4.00
2022-12-13T04:32:26.929Z,2.00
2022-12-13T04:37:31.679Z,2.40
2022-12-13T04:42:34.453Z,3.20
2022-12-13T04:47:37.177Z,2.00
2022-12-13T04:52:41.336Z,2.00
2022-12-13T04:57:44.126Z,2.00
2022-12-13T05:02:46.936Z,2.00
2022-12-13T05:07:51.187Z,2.00
2022-12-13T05:12:54.020Z,2.00
2022-12-13T05:17:56.809Z,2.00
2022-12-13T05:23:00.999Z,2.00
2022-12-13T05:28:09.069Z,2.00
2022-12-13T05:33:26.902Z,3.20
2022-12-13T05:38:31.169Z,3.60
2022-12-13T05:43:42.110Z,2.00
2022-12-13T05:48:46.406Z,2.00
2022-12-13T05:53:53.418Z,2.00
2022-12-13T05:58:56.575Z,2.40
2022-12-13T06:03:59.419Z,3.20
2022-12-13T06:09:03.798Z,2.00
2022-12-13T06:14:06.694Z,2.00
2022-12-13T06:19:25.937Z,1.20
2022-12-13T06:24:30.050Z,2.00
2022-12-13T06:29:32.795Z,2.00
2022-12-13T06:34:36.548Z,2.00
2022-12-13T06:39:41.014Z,3.20
2022-12-13T06:44:44.142Z,2.00
2022-12-13T06:49:47.160Z,1.40
2022-12-13T06:54:54.235Z,2.40
2022-12-13T07:00:03.460Z,2.00
2022-12-13T07:05:07.141Z,2.00
2022-12-13T07:10:12.535Z,2.00
2022-12-13T07:15:25.224Z,2.00
2022-12-13T07:20:28.022Z,4.00
2022-12-13T07:25:32.377Z,2.00
2022-12-13T07:30:41.115Z,2.00
2022-12-13T07:35:44.610Z,2.00
2022-12-13T07:40:48.999Z,2.00
2022-12-13T07:45:51.919Z,2.00
2022-12-13T07:50:54.957Z,4.00
2022-12-13T07:55:59.252Z,4.00
2022-12-13T08:01:03.104Z,2.40
2022-12-13T08:06:07.978Z,26.00
2022-12-13T08:11:12.777Z,25.00
2022-12-13T08:16:28.073Z,20.50
2022-12-13T08:27:01.906Z,18.40
2022-12-13T08:32:05.105Z,15.80
2022-12-13T08:37:07.885Z,13.80
2022-12-13T08:42:15.989Z,12.00
2022-12-13T08:47:22.570Z,11.00
2022-12-13T08:52:27.755Z,12.00
2022-12-13T08:57:31.885Z,10.60
2022-12-13T09:02:37.968Z,11.60
2022-12-13T09:07:43.002Z,11.20
2022-12-13T09:12:47.555Z,9.60
2022-12-13T09:17:52.360Z,9.40
2022-12-13T09:23:01.989Z,9.60
2022-12-13T09:28:08.297Z,9.00
2022-12-13T09:33:28.716Z,8.00
2022-12-13T09:38:35.774Z,8.40
2022-12-13T09:43:42.621Z,8.20
2022-12-13T09:48:48.386Z,8.00
2022-12-13T09:53:52.512Z,7.80
2022-12-13T09:58:57.184Z,6.40
2022-12-13T10:04:00.644Z,6.00
2022-12-13T10:09:03.408Z,8.60
2022-12-13T10:14:10.141Z,14.00
2022-12-13T10:19:28.868Z,17.00
2022-12-13T10:24:49.169Z,13.80
2022-12-13T10:30:00.488Z,21.25
2022-12-13T10:35:11.197Z,25.50
2022-12-13T10:40:32.058Z,26.00
2022-12-13T10:45:37.395Z,29.67
2022-12-13T10:50:40.520Z,31.00
2022-12-13T10:55:43.734Z,30.67
2022-12-13T11:00:49.319Z,33.67
2022-12-13T11:05:52.183Z,31.00
2022-12-13T11:10:59.400Z,30.00
2022-12-13T11:16:03.771Z,27.33
2022-12-13T11:21:07.786Z,26.00
2022-12-13T11:26:12.507Z,23.00
2022-12-13T11:31:17.539Z,21.50
2022-12-13T11:36:25.411Z,22.00
2022-12-13T11:41:32.571Z,19.75
2022-12-13T11:46:39.691Z,19.50
2022-12-13T11:51:44.139Z,17.20
2022-12-13T11:56:46.893Z,16.60
2022-12-13T12:01:52.749Z,17.00
2022-12-13T12:07:04.905Z,15.40
2022-12-13T12:12:22.166Z,15.40
2022-12-13T12:17:27.673Z,13.00
2022-12-13T12:22:36.186Z,14.20
2022-12-13T12:27:41.553Z,11.20
2022-12-13T12:32:50.282Z,12.60
2022-12-13T12:37:54.603Z,11.20
2022-12-13T12:43:16.269Z,10.00
2022-12-13T12:49:00.570Z,9.40
2022-12-13T12:54:12.837Z,9.00
2022-12-13T12:59:19.022Z,9.00
2022-12-13T13:04:26.047Z,9.20
2022-12-13T13:09:28.935Z,10.00
2022-12-13T13:14:32.998Z,20.75
2022-12-13T13:19:47.655Z,21.00
2022-12-13T13:24:59.617Z,14.00
2022-12-13T13:30:06.447Z,13.40
2022-12-13T13:35:50.993Z,13.00
2022-12-13T13:40:55.767Z,13.80
2022-12-13T13:46:00.540Z,13.40
2022-12-13T13:51:26.883Z,14.20
2022-12-13T13:56:50.077Z,17.00
2022-12-13T14:02:05.654Z,17.40
2022-12-13T14:07:56.291Z,17.80
2022-12-13T14:13:28.846Z,16.80
2022-12-13T14:19:20.385Z,16.80
2022-12-13T14:24:29.302Z,14.20
2022-12-13T14:29:34.620Z,14.40
2022-12-13T14:34:37.363Z,16.00
2022-12-13T14:39:45.018Z,15.80
2022-12-13T14:44:49.168Z,15.00
2022-12-13T14:49:55.414Z,13.80
2022-12-13T14:54:59.482Z,14.80
2022-12-13T15:00:22.791Z,14.60
2022-12-13T15:05:28.532Z,13.20
2022-12-13T15:10:34.369Z,14.00
2022-12-13T15:15:38.535Z,13.00
2022-12-13T15:20:42.025Z,11.20
2022-12-13T15:25:53.771Z,11.40
2022-12-13T15:30:58.199Z,13.00
2022-12-13T15:36:04.462Z,11.00
2022-12-13T15:41:07.771Z,13.80
2022-12-13T15:46:12.617Z,13.40
2022-12-13T15:51:29.054Z,11.20
2022-12-13T15:56:34.481Z,11.20
2022-12-13T16:01:38.567Z,11.00
2022-12-13T16:06:41.596Z,10.40
2022-12-13T16:11:48.894Z,12.20
2022-12-13T16:16:53.053Z,12.00
2022-12-13T16:21:56.003Z,10.20
2022-12-13T16:26:58.776Z,12.60
2022-12-13T16:32:08.700Z,10.20
2022-12-13T16:37:25.438Z,11.00
2022-12-13T16:42:29.812Z,10.60
2022-12-13T16:47:44.506Z,10.00
2022-12-13T16:52:51.161Z,10.40
2022-12-13T16:57:58.844Z,10.20
2022-12-13T17:03:02.969Z,11.60
2022-12-13T17:08:05.913Z,14.00
2022-12-13T17:13:08.964Z,15.00
2022-12-13T17:18:13.252Z,13.80
2022-12-13T17:23:18.400Z,15.00
2022-12-13T17:28:21.438Z,14.40
2022-12-13T17:33:26.059Z,14.40
2022-12-13T17:38:29.307Z,14.00
2022-12-13T17:43:35.169Z,14.00
2022-12-13T17:48:41.096Z,14.00
2022-12-13T17:53:44.810Z,14.20
2022-12-13T17:58:47.663Z,15.00
2022-12-13T18:03:52.850Z,13.80
2022-12-13T18:08:55.624Z,12.20
2022-12-13T18:13:58.747Z,13.60
2022-12-13T18:19:03.023Z,12.80
2022-12-13T18:24:06.866Z,12.20
2022-12-13T18:29:09.656Z,15.60
2022-12-13T18:34:13.845Z,14.80
2022-12-13T18:39:17.307Z,16.00
2022-12-13T18:44:20.274Z,17.20
2022-12-13T18:49:24.439Z,17.40
2022-12-13T18:54:27.348Z,17.00
2022-12-13T18:59:30.163Z,16.60
2022-12-13T19:04:35.590Z,17.80
2022-12-13T19:09:38.496Z,18.80
2022-12-13T19:14:41.282Z,19.60
2022-12-13T19:19:45.399Z,19.00
2022-12-13T19:24:51.214Z,18.00
2022-12-13T19:29:53.989Z,18.33
2022-12-13T19:34:58.212Z,17.40
2022-12-13T19:40:00.966Z,17.00
2022-12-13T19:45:03.724Z,19.50
2022-12-13T19:50:08.523Z,17.00
2022-12-13T19:55:11.679Z,17.00
2022-12-13T20:00:15.456Z,16.00
2022-12-13T20:05:19.891Z,17.00
2022-12-13T20:10:22.685Z,18.00
2022-12-13T20:15:25.439Z,17.00
2022-12-13T20:20:47.222Z,17.00
2022-12-13T20:26:00.421Z,17.20
2022-12-13T20:31:05.503Z,16.75
2022-12-13T20:36:27.639Z,15.50
2022-12-13T20:41:31.538Z,16.75
2022-12-13T20:46:34.482Z,16.25
2022-12-13T20:51:39.781Z,17.00
2022-12-13T20:56:42.788Z,16.00
2022-12-13T21:01:48.796Z,16.00
2022-12-13T21:06:53.440Z,15.60
2022-12-13T21:11:56.198Z,15.80
2022-12-13T21:16:59.784Z,16.60
2022-12-13T21:22:04.003Z,15.20
2022-12-13T21:27:06.791Z,16.00
2022-12-13T21:32:09.572Z,13.00
2022-12-13T21:37:13.787Z,13.80
2022-12-13T21:42:16.567Z,13.40
2022-12-13T21:47:19.393Z,15.80
2022-12-13T21:52:23.558Z,15.40
2022-12-13T21:57:40.898Z,15.00
2022-12-13T22:02:43.726Z,13.00
2022-12-13T22:07:48.160Z,13.40
2022-12-13T22:12:50.988Z,13.20
2022-12-13T22:17:53.728Z,13.40
2022-12-13T22:22:57.928Z,14.60
2022-12-13T22:28:00.761Z,13.00
2022-12-13T22:33:03.585Z,12.20
2022-12-13T22:38:07.846Z,14.60
2022-12-13T22:43:12.930Z,13.00
2022-12-13T22:48:19.100Z,13.00
2022-12-13T22:53:23.257Z,13.20
2022-12-13T22:58:26.364Z,12.00
2022-12-13T23:03:31.216Z,14.60
2022-12-13T23:08:40.236Z,12.00
2022-12-13T23:13:48.252Z,11.80
2022-12-13T23:19:01.229Z,12.00
2022-12-13T23:24:15.068Z,12.20
2022-12-13T23:29:17.921Z,12.20
2022-12-13T23:34:21.265Z,11.00
2022-12-13T23:39:25.419Z,11.00
2022-12-13T23:44:28.196Z,12.00
2022-12-13T23:49:30.979Z,13.00
2022-12-13T23:54:35.235Z,11.00
2022-12-13T23:59:38.016Z,11.40
